Bookmark and Share
Track history (hours):
 

Relax

Last reported at 2014-Apr-23 15:19 UTC. Time now 2014-Apr-24 04:24 UTC.
Position N 40°37' E 014°30'.

MMSI: 247277800.

NotesDate/timePositionNaut miles runAvg speedWind from/ knotsBaromVisibWave heightAir tempDewpointWater temp
2014-Apr-23 15:19N 40°37' E 014°30'1114.7
2014-Apr-23 14:33N 40°34' E 014°16'0 0.3
2014-Apr-23 13:33N 40°34' E 014°16'2 0.3
2014-Apr-23 08:33N 40°34' E 014°18'9 0.5
2014-Apr-22 15:31N 40°37' E 014°30'12 9.6
2014-Apr-22 14:16N 40°33' E 014°14'0 0.4
2014-Apr-22 13:28N 40°34' E 014°14'0 0.0
2014-Apr-22 12:31N 40°34' E 014°14'0 0.0
2014-Apr-22 11:28N 40°34' E 014°14'0 0.0
2014-Apr-22 10:25N 40°34' E 014°14'0 0.0
2014-Apr-22 09:31N 40°34' E 014°14'4 4.0
2014-Apr-22 08:33N 40°34' E 014°19'6 0.4
2014-Apr-21 15:19N 40°36' E 014°27'10 9.8
2014-Apr-21 14:19N 40°33' E 014°14'0 0.3
2014-Apr-21 13:28N 40°34' E 014°14'0 0.0
2014-Apr-21 12:31N 40°34' E 014°14'0 0.0
2014-Apr-21 11:28N 40°34' E 014°14'0 0.0
2014-Apr-21 10:31N 40°34' E 014°14'0 0.0
2014-Apr-21 09:33N 40°34' E 014°14'0 0.4
2014-Apr-21 08:33N 40°34' E 014°15'1 0.0
2014-Apr-20 14:32N 40°34' E 014°15'1 0.7
2014-Apr-20 13:23N 40°33' E 014°16'0 0.0
2014-Apr-20 12:11N 40°33' E 014°16'0 0.0
2014-Apr-20 11:23N 40°33' E 014°16'0 0.0
2014-Apr-20 10:23N 40°33' E 014°16'1 0.7
2014-Apr-20 09:32N 40°34' E 014°16'8 6.0
2014-Apr-20 08:15N 40°36' E 014°26'2 0.0
2014-Apr-18 15:04N 40°37' E 014°28'918.3
2014-Apr-18 14:33N 40°34' E 014°16'1 0.5
2014-Apr-18 13:09N 40°33' E 014°16'0 0.0
2014-Apr-18 12:33N 40°33' E 014°16'0 0.0
2014-Apr-18 11:33N 40°33' E 014°16'0 0.0
2014-Apr-18 09:27N 40°33' E 014°16'8 7.4
2014-Apr-18 08:25N 40°36' E 014°25'  

Dump ship's entire track history

sailing weather and tide predictions

Relax — ILWX2 — position and weather